Terminal Aerodrome Forecast
Issued by NWS St Louis, MO

Home | Current Version | Previous Version | Text Only | Print | Product List | Glossary On
Versions: 1 2 3 4 5 6 7 8 9 10 11 12 13 14 15 16 17 18 19 20 21 22 23 24
737
FTUS43 KLSX 230210 AAA
TAFCOU
TAF AMD
KCOU 230210Z 2302/2324 34011KT P6SM OVC012
     FM231800 32006KT P6SM BKN020
     FM232100 29005KT P6SM SCT150=

USA.gov is the U.S. government's official web portal to all federal, state and local government web resources and services.